Terminal Aerodrome Forecast
Issued by NWS

Current Version | Previous Version | Text Only | Print | Product List | Glossary Off
Versions: 1 2 3 4 5 6 7 8 9 10 11 12 13 14 15 16 17 18 19 20 21 22 23

000
FTUS41 KRNK 242053 AAD
TAFLWB
TAF AMD
KLWB 242053Z 2421/2518 11007KT P6SM OVC010
     FM242200 12008KT 5SM -SHRA OVC020
      TEMPO 2422/2424 3SM TSRA OVC010CB
     FM250300 17004KT 5SM -SHRA OVC010
     FM250800 VRB03KT P6SM OVC015
     FM251500 23009KT P6SM VCSH BKN045=

USA.gov is the U.S. government's official web portal to all federal, state and local government web resources and services.